Dalton, Texas
Current Conditions -  °F | °C
As of 10:55 AM on Thursday 30 Oct 2014 (Local Time) from KOSA Reporting Station
Clear Clear  
Wind Chill: 65°   Ceiling: Unl
Heat Index: 65°   Visibility: 7mi
Dew Point: 48°   Wind: 5mph
Humidity: 53%   Direction: 160°SSE
Pressure: 30.2"   Gusts: NA
Location:  33.2006°N, 94.6977°W
Report Text: KOSA 301555Z AUTO 16004KT 7SM CLR 18/09 A3020 RMK AO1 T01840087
Loading
Personal Weather Stations






























Interactive Weather Map New forecast layout! Learn more

10-Day Weather Forecast

Advertisements
Track Severe Weather on mobile